sensor_id;sensor_type;location;lat;lon;timestamp;pressure;altitude;pressure_sealevel;temperature;humidity
26915;BME280;14480;52.608;13.416;2023-02-13T07:57:04;141895.03;;;-8.58;100.00
26915;BME280;14480;52.608;13.416;2023-02-13T08:02:09;141839.47;;;-8.81;100.00
26915;BME280;14480;52.608;13.416;2023-02-13T08:07:14;141849.38;;;-8.77;100.00
26915;BME280;14480;52.608;13.416;2023-02-13T08:12:19;141843.22;;;-8.79;100.00
26915;BME280;14480;52.608;13.416;2023-02-13T08:17:22;141851.84;;;-8.76;100.00
26915;BME280;14480;52.608;13.416;2023-02-13T08:22:26;141839.47;;;-8.81;100.00
26915;BME280;14480;52.608;13.416;2023-02-13T08:27:30;141887.66;;;-8.61;100.00
26915;BME280;14480;52.608;13.416;2023-02-13T08:32:34;141879.03;;;-8.65;100.00
26915;BME280;14480;52.608;13.416;2023-02-13T08:37:54;141866.66;;;-8.70;100.00
26915;BME280;14480;52.608;13.416;2023-02-13T08:42:59;141879.03;;;-8.65;100.00
26915;BME280;14480;52.608;13.416;2023-02-13T08:48:03;141896.28;;;-8.58;100.00
26915;BME280;14480;52.608;13.416;2023-02-13T08:53:08;141922.22;;;-8.47;100.00
26915;BME280;14480;52.608;13.416;2023-02-13T08:58:13;141939.50;;;-8.40;100.00
26915;BME280;14480;52.608;13.416;2023-02-13T09:03:19;141967.88;;;-8.28;100.00
26915;BME280;14480;52.608;13.416;2023-02-13T09:08:22;141972.81;;;-8.26;100.00
26915;BME280;14480;52.608;13.416;2023-02-13T09:13:27;141992.59;;;-8.18;100.00
26915;BME280;14480;52.608;13.416;2023-02-13T09:18:31;142017.28;;;-8.08;100.00
26915;BME280;14480;52.608;13.416;2023-02-13T09:23:36;141999.97;;;-8.15;100.00
26915;BME280;14480;52.608;13.416;2023-02-13T09:28:42;142038.25;;;-7.99;100.00
26915;BME280;14480;52.608;13.416;2023-02-13T09:33:46;142021.00;;;-8.06;100.00
26915;BME280;14480;52.608;13.416;2023-02-13T09:38:53;142013.59;;;-8.09;100.00
26915;BME280;14480;52.608;13.416;2023-02-13T09:43:59;142028.38;;;-8.03;100.00
26915;BME280;14480;52.608;13.416;2023-02-13T09:49:04;142012.34;;;-8.10;100.00
26915;BME280;14480;52.608;13.416;2023-02-13T09:54:12;142014.81;;;-8.09;100.00
26915;BME280;14480;52.608;13.416;2023-02-13T09:59:23;142009.84;;;-8.11;100.00
26915;BME280;14480;52.608;13.416;2023-02-13T10:04:35;142024.69;;;-8.05;100.00
26915;BME280;14480;52.608;13.416;2023-02-13T10:09:51;142027.16;;;-8.04;100.00
26915;BME280;14480;52.608;13.416;2023-02-13T10:15:11;142025.94;;;-8.04;100.00
26915;BME280;14480;52.608;13.416;2023-02-13T10:20:21;142058.03;;;-7.91;100.00
26915;BME280;14480;52.608;13.416;2023-02-13T10:25:29;142082.75;;;-7.81;100.00
26915;BME280;14480;52.608;13.416;2023-02-13T10:30:39;142095.09;;;-7.76;100.00
26915;BME280;14480;52.608;13.416;2023-02-13T10:35:50;142093.84;;;-7.76;100.00
26915;BME280;14480;52.608;13.416;2023-02-13T10:41:15;142118.56;;;-7.66;100.00
26915;BME280;14480;52.608;13.416;2023-02-13T10:46:23;142153.22;;;-7.52;100.00
26915;BME280;14480;52.608;13.416;2023-02-13T10:51:32;142143.28;;;-7.56;100.00
26915;BME280;14480;52.608;13.416;2023-02-13T10:56:37;142123.50;;;-7.64;100.00
26915;BME280;14480;52.608;13.416;2023-02-13T11:01:43;142081.53;;;-7.81;100.00
26915;BME280;14480;52.608;13.416;2023-02-13T11:06:53;142086.44;;;-7.79;100.00
26915;BME280;14480;52.608;13.416;2023-02-13T11:11:58;142074.13;;;-7.84;100.00
26915;BME280;14480;52.608;13.416;2023-02-13T11:17:27;142060.50;;;-7.90;100.00
26915;BME280;14480;52.608;13.416;2023-02-13T11:22:32;141987.66;;;-8.20;100.00
26915;BME280;14480;52.608;13.416;2023-02-13T11:27:37;142044.47;;;-7.97;100.00
26915;BME280;14480;52.608;13.416;2023-02-13T11:32:45;142029.63;;;-8.03;100.00
26915;BME280;14480;52.608;13.416;2023-02-13T11:38:09;142100.06;;;-7.74;100.00
26915;BME280;14480;52.608;13.416;2023-02-13T11:43:16;142144.53;;;-7.55;100.00
26915;BME280;14480;52.608;13.416;2023-02-13T11:48:21;142143.28;;;-7.56;100.00
26915;BME280;14480;52.608;13.416;2023-02-13T11:53:26;142116.09;;;-7.67;100.00
26915;BME280;14480;52.608;13.416;2023-02-13T11:58:31;142137.13;;;-7.58;100.00
26915;BME280;14480;52.608;13.416;2023-02-13T12:03:36;142129.72;;;-7.61;100.00
26915;BME280;14480;52.608;13.416;2023-02-13T12:08:41;142077.81;;;-7.83;100.00
26915;BME280;14480;52.608;13.416;2023-02-13T12:13:47;142040.78;;;-7.98;100.00
26915;BME280;14480;52.608;13.416;2023-02-13T12:18:53;142091.38;;;-7.77;100.00
26915;BME280;14480;52.608;13.416;2023-02-13T12:23:59;142024.69;;;-8.05;100.00
26915;BME280;14480;52.608;13.416;2023-02-13T12:29:11;142038.25;;;-7.99;100.00
26915;BME280;14480;52.608;13.416;2023-02-13T12:39:41;142049.41;;;-7.95;100.00
26915;BME280;14480;52.608;13.416;2023-02-13T12:44:53;142001.22;;;-8.14;100.00
26915;BME280;14480;52.608;13.416;2023-02-13T12:55:30;141976.50;;;-8.25;100.00
26915;BME280;14480;52.608;13.416;2023-02-13T13:00:40;141969.09;;;-8.28;100.00
26915;BME280;14480;52.608;13.416;2023-02-13T13:05:57;141959.25;;;-8.32;100.00
26915;BME280;14480;52.608;13.416;2023-02-13T13:11:18;142038.25;;;-7.99;100.00
26915;BME280;14480;52.608;13.416;2023-02-13T13:16:32;142048.16;;;-7.95;100.00
26915;BME280;14480;52.608;13.416;2023-02-13T13:21:39;142095.09;;;-7.76;100.00
26915;BME280;14480;52.608;13.416;2023-02-13T13:26:45;142053.09;;;-7.93;100.00
26915;BME280;14480;52.608;13.416;2023-02-13T13:31:51;142051.88;;;-7.94;100.00
26915;BME280;14480;52.608;13.416;2023-02-13T13:36:57;142034.56;;;-8.01;100.00
26915;BME280;14480;52.608;13.416;2023-02-13T13:42:06;142071.66;;;-7.85;100.00
26915;BME280;14480;52.608;13.416;2023-02-13T13:47:15;141941.97;;;-8.39;100.00
26915;BME280;14480;52.608;13.416;2023-02-13T13:52:23;141948.16;;;-8.36;100.00
26915;BME280;14480;52.608;13.416;2023-02-13T13:57:28;141988.88;;;-8.19;100.00
26915;BME280;14480;52.608;13.416;2023-02-13T14:13:34;141967.88;;;-8.28;100.00
26915;BME280;14480;52.608;13.416;2023-02-13T14:18:42;141981.44;;;-8.23;100.00
26915;BME280;14480;52.608;13.416;2023-02-13T14:23:47;141974.03;;;-8.26;100.00
26915;BME280;14480;52.608;13.416;2023-02-13T14:28:57;141961.72;;;-8.31;100.00
26915;BME280;14480;52.608;13.416;2023-02-13T14:34:02;141962.94;;;-8.30;100.00
26915;BME280;14480;52.608;13.416;2023-02-13T14:39:16;141974.03;;;-8.26;100.00
26915;BME280;14480;52.608;13.416;2023-02-13T14:44:24;141932.13;;;-8.43;100.00
26915;BME280;14480;52.608;13.416;2023-02-13T14:49:29;141929.66;;;-8.44;100.00
26915;BME280;14480;52.608;13.416;2023-02-13T14:54:35;141950.63;;;-8.35;100.00
26915;BME280;14480;52.608;13.416;2023-02-13T14:59:42;141937.06;;;-8.41;100.00
26915;BME280;14480;52.608;13.416;2023-02-13T15:04:50;141840.72;;;-8.80;100.00
26915;BME280;14480;52.608;13.416;2023-02-13T15:09:57;141821.00;;;-8.89;100.00
26915;BME280;14480;52.608;13.416;2023-02-13T15:15:16;141897.50;;;-8.57;100.00
26915;BME280;14480;52.608;13.416;2023-02-13T15:20:27;141890.13;;;-8.60;100.00
26915;BME280;14480;52.608;13.416;2023-02-13T15:25:33;141900.03;;;-8.56;100.00
26915;BME280;14480;52.608;13.416;2023-02-13T15:30:38;141844.47;;;-8.79;100.00
26915;BME280;14480;52.608;13.416;2023-02-13T15:35:41;141829.63;;;-8.85;100.00
26915;BME280;14480;52.608;13.416;2023-02-13T15:40:45;141882.72;;;-8.63;100.00
26915;BME280;14480;52.608;13.416;2023-02-13T15:45:50;141819.78;;;-8.89;100.00
26915;BME280;14480;52.608;13.416;2023-02-13T15:50:58;141790.16;;;-9.01;100.00
26915;BME280;14480;52.608;13.416;2023-02-13T15:56:03;141771.63;;;-9.09;100.00
26915;BME280;14480;52.608;13.416;2023-02-13T16:01:08;141743.22;;;-9.21;100.00
26915;BME280;14480;52.608;13.416;2023-02-13T16:06:12;141677.84;;;-9.48;100.00
26915;BME280;14480;52.608;13.416;2023-02-13T16:16:32;141705.00;;;-9.36;100.00
26915;BME280;14480;52.608;13.416;2023-02-13T16:21:37;141635.91;;;-9.65;100.00
26915;BME280;14480;52.608;13.416;2023-02-13T16:26:41;141702.53;;;-9.37;100.00
26915;BME280;14480;52.608;13.416;2023-02-13T16:31:46;141739.53;;;-9.22;100.00
26915;BME280;14480;52.608;13.416;2023-02-13T16:36:51;141717.31;;;-9.31;100.00
26915;BME280;14480;52.608;13.416;2023-02-13T16:41:56;141724.72;;;-9.28;100.00
26915;BME280;14480;52.608;13.416;2023-02-13T16:47:02;141658.09;;;-9.56;100.00
26915;BME280;14480;52.608;13.416;2023-02-13T16:52:09;141655.63;;;-9.57;100.00
26915;BME280;14480;52.608;13.416;2023-02-13T16:57:17;141667.97;;;-9.52;100.00
26915;BME280;14480;52.608;13.416;2023-02-13T17:02:25;141664.25;;;-9.53;100.00
26915;BME280;14480;52.608;13.416;2023-02-13T17:07:30;141659.34;;;-9.55;100.00
26915;BME280;14480;52.608;13.416;2023-02-13T17:12:34;141659.34;;;-9.55;100.00
26915;BME280;14480;52.608;13.416;2023-02-13T17:17:39;141695.09;;;-9.41;100.00
26915;BME280;14480;52.608;13.416;2023-02-13T17:22:43;141686.47;;;-9.44;100.00
26915;BME280;14480;52.608;13.416;2023-02-13T17:27:47;141647.03;;;-9.60;100.00
26915;BME280;14480;52.608;13.416;2023-02-13T17:32:56;141658.09;;;-9.56;100.00
26915;BME280;14480;52.608;13.416;2023-02-13T17:38:00;141640.81;;;-9.63;100.00
26915;BME280;14480;52.608;13.416;2023-02-13T17:43:04;141597.69;;;-9.81;100.00
26915;BME280;14480;52.608;13.416;2023-02-13T17:48:10;141564.38;;;-9.94;100.00
26915;BME280;14480;52.608;13.416;2023-02-13T17:53:17;141593.97;;;-9.82;100.00
26915;BME280;14480;52.608;13.416;2023-02-13T17:58:23;141584.09;;;-9.86;100.00
26915;BME280;14480;52.608;13.416;2023-02-13T18:03:28;141635.91;;;-9.65;100.00
26915;BME280;14480;52.608;13.416;2023-02-13T18:08:32;141573.00;;;-9.91;100.00
26915;BME280;14480;52.608;13.416;2023-02-13T18:13:35;141570.53;;;-9.92;100.00
26915;BME280;14480;52.608;13.416;2023-02-13T18:18:40;141549.56;;;-10.01;100.00
26915;BME280;14480;52.608;13.416;2023-02-13T18:23:44;141544.63;;;-10.03;100.00
26915;BME280;14480;52.608;13.416;2023-02-13T18:28:48;141524.91;;;-10.11;100.00
26915;BME280;14480;52.608;13.416;2023-02-13T18:33:54;141532.28;;;-10.08;100.00
26915;BME280;14480;52.608;13.416;2023-02-13T18:38:58;141501.47;;;-10.20;100.00
26915;BME280;14480;52.608;13.416;2023-02-13T18:44:01;141536.03;;;-10.06;100.00
26915;BME280;14480;52.608;13.416;2023-02-13T18:49:07;141487.97;;;-10.26;100.00
26915;BME280;14480;52.608;13.416;2023-02-13T18:54:12;141544.63;;;-10.03;100.00
26915;BME280;14480;52.608;13.416;2023-02-13T18:59:16;141554.50;;;-9.98;100.00
26915;BME280;14480;52.608;13.416;2023-02-13T19:04:21;141534.78;;;-10.07;100.00
26915;BME280;14480;52.608;13.416;2023-02-13T19:09:27;141458.41;;;-10.38;100.00
26915;BME280;14480;52.608;13.416;2023-02-13T19:14:31;141490.44;;;-10.25;100.00
26915;BME280;14480;52.608;13.416;2023-02-13T19:19:36;141485.53;;;-10.27;100.00
26915;BME280;14480;52.608;13.416;2023-02-13T19:24:40;141484.28;;;-10.27;100.00
26915;BME280;14480;52.608;13.416;2023-02-13T19:29:45;141473.16;;;-10.32;100.00
26915;BME280;14480;52.608;13.416;2023-02-13T19:34:50;141475.63;;;-10.31;100.00
26915;BME280;14480;52.608;13.416;2023-02-13T19:39:53;141467.00;;;-10.35;100.00
26915;BME280;14480;52.608;13.416;2023-02-13T19:44:57;141467.00;;;-10.35;100.00
26915;BME280;14480;52.608;13.416;2023-02-13T19:50:02;141452.25;;;-10.41;100.00
26915;BME280;14480;52.608;13.416;2023-02-13T19:55:05;141396.78;;;-10.64;100.00
26915;BME280;14480;52.608;13.416;2023-02-13T20:00:09;141415.22;;;-10.56;100.00
26915;BME280;14480;52.608;13.416;2023-02-13T20:05:21;141423.91;;;-10.52;100.00
26915;BME280;14480;52.608;13.416;2023-02-13T20:10:24;141407.84;;;-10.59;100.00
26915;BME280;14480;52.608;13.416;2023-02-13T20:15:28;141401.69;;;-10.62;100.00
26915;BME280;14480;52.608;13.416;2023-02-13T20:20:37;141384.44;;;-10.69;100.00
26915;BME280;14480;52.608;13.416;2023-02-13T20:25:44;141379.50;;;-10.71;100.00
26915;BME280;14480;52.608;13.416;2023-02-13T20:30:48;141373.34;;;-10.73;100.00
26915;BME280;14480;52.608;13.416;2023-02-13T20:35:53;141358.53;;;-10.79;100.00
26915;BME280;14480;52.608;13.416;2023-02-13T20:40:57;141372.13;;;-10.74;100.00
26915;BME280;14480;52.608;13.416;2023-02-13T20:46:04;141370.91;;;-10.74;100.00
26915;BME280;14480;52.608;13.416;2023-02-13T20:51:10;141342.56;;;-10.86;100.00
26915;BME280;14480;52.608;13.416;2023-02-13T20:56:14;141374.59;;;-10.73;100.00
26915;BME280;14480;52.608;13.416;2023-02-13T21:01:19;141351.16;;;-10.82;100.00
26915;BME280;14480;52.608;13.416;2023-02-13T21:06:25;141349.94;;;-10.83;100.00
26915;BME280;14480;52.608;13.416;2023-02-13T21:11:29;141317.91;;;-10.96;100.00
26915;BME280;14480;52.608;13.416;2023-02-13T21:16:38;141320.38;;;-10.95;100.00
26915;BME280;14480;52.608;13.416;2023-02-13T21:21:44;141326.53;;;-10.93;100.00
26915;BME280;14480;52.608;13.416;2023-02-13T21:26:51;141298.19;;;-11.04;100.00
26915;BME280;14480;52.608;13.416;2023-02-13T21:31:57;141315.44;;;-10.97;100.00
26915;BME280;14480;52.608;13.416;2023-02-13T21:37:02;141313.00;;;-10.98;100.00
26915;BME280;14480;52.608;13.416;2023-02-13T21:42:07;141306.78;;;-11.01;100.00
26915;BME280;14480;52.608;13.416;2023-02-13T21:47:11;141306.78;;;-11.01;100.00
26915;BME280;14480;52.608;13.416;2023-02-13T21:52:17;141310.53;;;-10.99;100.00
26915;BME280;14480;52.608;13.416;2023-02-13T21:57:21;141321.59;;;-10.95;100.00
26915;BME280;14480;52.608;13.416;2023-02-13T22:02:24;141322.84;;;-10.94;100.00
26915;BME280;14480;52.608;13.416;2023-02-13T22:07:30;141358.53;;;-10.79;100.00
26915;BME280;14480;52.608;13.416;2023-02-13T22:12:53;141375.81;;;-10.72;100.00
26915;BME280;14480;52.608;13.416;2023-02-13T22:17:57;141380.75;;;-10.70;100.00
26915;BME280;14480;52.608;13.416;2023-02-13T22:23:05;141322.84;;;-10.94;100.00
26915;BME280;14480;52.608;13.416;2023-02-13T22:28:13;141335.13;;;-10.89;100.00
26915;BME280;14480;52.608;13.416;2023-02-13T22:33:17;141288.34;;;-11.08;100.00
26915;BME280;14480;52.608;13.416;2023-02-13T22:38:24;141306.78;;;-11.01;100.00
